Time;durP1;ratioP1;P1;durP2;ratioP2;P2;SDS_P1;SDS_P2;PMS_P1;PMS_P2;Temp;Humidity;BMP_temperature;BMP_pressure;BME280_temperature;BME280_humidity;BME280_pressure;Samples;Min_cycle;Max_cycle;Signal;HPM_P1;HPM_P2
2021/08/09 00:01:11;;;;;;;4.43;1.70;;;14.40;99.90;;;15.47;76.33;94514.69;5008648;28;20194;-70
2021/08/09 00:03:37;;;;;;;4.43;2.13;;;14.40;99.90;;;15.48;76.27;94509.06;5011934;28;20556;-70
2021/08/09 00:06:03;;;;;;;3.20;1.87;;;14.40;99.90;;;15.43;76.25;94506.44;5009835;28;20673;-70
2021/08/09 00:08:29;;;;;;;4.67;2.10;;;14.40;99.90;;;15.33;76.47;94499.28;5011510;28;20200;-70
2021/08/09 00:10:55;;;;;;;2.67;1.97;;;14.30;99.90;;;15.33;76.33;94499.28;5009152;28;20672;-71
2021/08/09 00:13:21;;;;;;;3.50;2.03;;;14.30;99.90;;;15.28;76.45;94504.66;5008707;28;20288;-70
2021/08/09 00:15:47;;;;;;;7.03;2.40;;;14.20;99.90;;;15.34;76.41;94513.44;5013535;28;20692;-70
2021/08/09 00:18:12;;;;;;;2.00;1.80;;;14.20;99.90;;;15.33;76.30;94506.50;5008172;28;20195;-70
2021/08/09 00:20:38;;;;;;;2.87;1.70;;;14.20;99.90;;;15.38;76.58;94504.56;5009239;28;20204;-70
2021/08/09 00:23:05;;;;;;;6.07;2.00;;;14.20;99.90;;;15.42;76.55;94502.16;5014921;28;20714;-70
2021/08/09 00:25:31;;;;;;;2.90;2.03;;;14.30;99.90;;;15.39;76.51;94495.50;5001310;28;20232;-70
2021/08/09 00:27:57;;;;;;;3.50;2.10;;;14.30;99.90;;;15.33;76.34;94495.81;5006687;28;20197;-70
2021/08/09 00:30:23;;;;;;;3.37;1.90;;;14.20;99.90;;;15.26;76.42;94490.78;4992028;28;20201;-70
2021/08/09 00:32:49;;;;;;;3.00;2.30;;;14.20;99.90;;;15.27;76.78;94500.41;4990831;28;20198;-71
2021/08/09 00:35:15;;;;;;;3.83;2.00;;;14.10;99.90;;;15.29;76.57;94492.91;5019866;28;20254;-71
2021/08/09 00:37:41;;;;;;;4.97;2.37;;;14.20;99.90;;;15.26;76.44;94492.66;4994332;28;20231;-71
2021/08/09 00:40:08;;;;;;;5.63;2.90;;;14.20;99.90;;;15.31;76.52;94493.41;5003709;28;20531;-70
2021/08/09 00:42:34;;;;;;;2.63;2.30;;;14.20;99.90;;;15.28;76.46;94485.97;4992921;28;20201;-70
2021/08/09 00:45:03;;;;;;;3.53;2.53;;;14.70;99.90;;;15.29;76.69;94495.56;5002868;28;20196;-70
2021/08/09 00:47:31;;;;;;;3.03;2.20;;;14.20;99.90;;;15.24;76.60;94492.94;5007181;28;20256;-71
2021/08/09 00:49:58;;;;;;;2.63;2.37;;;14.20;99.90;;;15.23;76.70;94491.34;5007852;28;20571;-70
2021/08/09 00:52:23;;;;;;;3.30;2.50;;;14.20;99.90;;;15.19;76.56;94490.31;5003665;28;20258;-70
2021/08/09 00:54:49;;;;;;;4.77;2.50;;;14.20;99.90;;;15.26;76.56;94493.47;5013848;28;20208;-70
2021/08/09 00:57:15;;;;;;;3.63;2.37;;;14.30;99.90;;;15.28;76.91;94495.84;4989089;28;20248;-71
2021/08/09 00:59:41;;;;;;;3.03;2.20;;;14.20;99.90;;;15.32;76.84;94505.69;5007211;28;20199;-70
2021/08/09 01:02:08;;;;;;;4.50;2.40;;;14.30;99.90;;;15.36;76.86;94495.25;4991124;28;20193;-70
2021/08/09 01:04:34;;;;;;;5.17;1.90;;;14.30;99.90;;;15.34;76.93;94495.53;5006788;28;20268;-71
2021/08/09 01:07:00;;;;;;;6.87;2.10;;;14.30;99.90;;;15.26;76.93;94493.47;5007642;28;20303;-70
2021/08/09 01:09:43;;;;;;;2.83;2.30;;;14.30;99.90;;;15.22;76.95;94508.44;4990405;28;20207;-70
2021/08/09 01:12:44;;;;;;;6.67;2.60;;;14.20;99.90;;;15.23;76.79;94504.72;5005592;28;20235;-70
2021/08/09 01:15:35;;;;;;;3.43;2.13;;;14.20;99.90;;;15.16;76.83;94500.75;5013503;28;20192;-70
2021/08/09 01:18:04;;;;;;;7.13;2.47;;;14.10;99.90;;;15.08;77.08;94482.63;5012504;28;20190;-70
2021/08/09 01:20:59;;;;;;;2.90;2.20;;;14.10;99.90;;;15.02;77.13;94492.56;5003853;28;20184;-70
2021/08/09 01:23:52;;;;;;;5.17;2.30;;;13.90;99.90;;;15.06;76.96;94484.78;5005761;28;20192;-70
2021/08/09 01:26:34;;;;;;;3.90;2.30;;;14.00;99.90;;;15.03;77.25;94496.84;4988586;28;20279;-71
2021/08/09 01:29:06;;;;;;;5.37;2.40;;;13.70;99.90;;;14.95;77.06;94489.41;5009939;28;20514;-70
2021/08/09 01:31:46;;;;;;;3.20;2.23;;;13.80;99.90;;;14.96;77.12;94485.66;5006428;28;20212;-70
2021/08/09 01:34:14;;;;;;;3.73;2.10;;;14.30;99.90;;;14.90;77.07;94486.78;4998989;28;20193;-70
2021/08/09 01:36:49;;;;;;;6.07;2.43;;;14.60;99.90;;;14.88;77.28;94486.25;5024043;28;20262;-71
2021/08/09 01:39:17;;;;;;;4.13;2.40;;;13.90;99.90;;;14.88;77.07;94486.25;4988065;28;20201;-70
2021/08/09 01:41:44;;;;;;;4.37;2.93;;;13.90;99.90;;;14.82;77.43;94487.34;4993948;28;20257;-70
2021/08/09 01:44:14;;;;;;;4.73;2.80;;;13.80;99.90;;;14.83;77.33;94491.63;5011164;28;21032;-71
2021/08/09 01:46:43;;;;;;;3.00;2.70;;;13.80;99.90;;;14.85;77.47;94500.94;5007756;28;20193;-70
2021/08/09 01:49:10;;;;;;;2.63;2.43;;;13.80;99.90;;;14.91;77.30;94488.34;5010141;28;20207;-70
2021/08/09 01:51:37;;;;;;;3.83;2.77;;;13.80;99.90;;;14.84;77.36;94488.66;5007466;28;20213;-70
2021/08/09 01:54:07;;;;;;;3.43;2.50;;;14.50;99.90;;;14.81;77.45;94494.56;5004925;28;20509;-70
2021/08/09 01:56:36;;;;;;;3.60;2.60;;;13.80;99.90;;;14.83;77.42;94491.63;5007516;28;20711;-70
2021/08/09 01:59:02;;;;;;;4.70;2.70;;;13.80;99.90;;;14.87;77.67;94492.66;4996543;28;20225;-70
2021/08/09 02:01:28;;;;;;;3.50;2.80;;;13.90;99.90;;;14.84;77.49;94488.66;5018626;28;20886;-70
2021/08/09 02:03:55;;;;;;;4.90;2.63;;;13.80;99.90;;;14.85;76.88;94500.13;5003450;28;20276;-71
2021/08/09 02:06:21;;;;;;;5.43;2.50;;;13.80;99.90;;;14.88;77.68;94495.03;5008818;28;20287;-70
2021/08/09 02:08:47;;;;;;;3.83;2.37;;;14.60;99.90;;;14.87;77.59;94496.09;4995267;28;20725;-71
2021/08/09 02:11:24;;;;;;;4.70;2.13;;;14.70;99.90;;;14.91;77.67;94501.69;4991856;28;20195;-70
2021/08/09 02:13:58;;;;;;;2.40;2.20;;;13.90;99.90;;;14.91;77.74;94490.25;5005221;28;20609;-70
2021/08/09 02:16:29;;;;;;;3.57;2.47;;;13.90;99.90;;;14.89;77.76;94495.84;5005300;28;20716;-71
2021/08/09 02:19:17;;;;;;;4.13;2.70;;;13.90;99.90;;;14.94;78.09;94495.81;5008704;28;20187;-70
2021/08/09 02:22:00;;;;;;;3.40;2.73;;;13.90;99.90;;;14.84;77.74;94488.66;5015361;28;20192;-70
2021/08/09 02:24:40;;;;;;;7.37;3.10;;;13.80;99.90;;;14.81;77.80;94485.75;5009682;28;20625;-70
2021/08/09 02:27:16;;;;;;;5.23;2.70;;;13.80;99.90;;;14.88;77.99;94489.72;5008733;28;20654;-70
2021/08/09 02:29:49;;;;;;;3.73;2.87;;;14.60;99.90;;;14.91;77.93;94484.91;5010744;28;20335;-70
2021/08/09 02:32:16;;;;;;;3.77;2.87;;;13.90;99.90;;;14.86;77.93;94491.06;4990803;28;20222;-70
2021/08/09 02:34:43;;;;;;;4.50;2.70;;;13.90;99.90;;;14.85;77.86;94484.13;4994761;28;20194;-70
2021/08/09 02:37:10;;;;;;;4.13;2.77;;;13.80;99.90;;;14.81;77.93;94470.53;5002969;28;20668;-70
2021/08/09 02:39:39;;;;;;;3.50;2.63;;;13.80;99.90;;;14.75;77.98;94474.31;5011074;28;20193;-70
2021/08/09 02:42:05;;;;;;;3.80;2.50;;;13.80;99.90;;;14.75;78.16;94471.66;5018881;28;20278;-70
2021/08/09 02:44:32;;;;;;;3.77;2.73;;;13.80;99.90;;;14.79;78.18;94480.69;5010342;28;20538;-70
2021/08/09 02:47:00;;;;;;;6.77;3.17;;;13.80;99.90;;;14.71;78.00;94475.94;5006342;28;20279;-71
2021/08/09 02:49:27;;;;;;;4.33;2.50;;;13.80;99.90;;;14.71;78.04;94475.94;5006695;28;20191;-71
2021/08/09 02:51:57;;;;;;;3.73;2.83;;;13.80;99.90;;;14.71;78.15;94475.13;4994203;28;20196;-71
2021/08/09 02:54:24;;;;;;;5.37;3.00;;;13.70;99.90;;;14.64;78.15;94478.09;5011578;28;20291;-71
2021/08/09 02:56:51;;;;;;;3.27;2.90;;;13.70;99.90;;;14.54;78.14;94467.47;4994888;28;20296;-70
2021/08/09 02:59:17;;;;;;;3.97;3.10;;;13.60;99.90;;;14.52;78.08;94479.50;5010060;28;20197;-71
2021/08/09 03:01:45;;;;;;;4.67;3.23;;;13.60;99.90;;;14.54;78.24;94483.47;4959942;28;20180;-70
2021/08/09 03:04:18;;;;;;;4.10;3.30;;;13.60;99.90;;;14.56;78.12;94478.69;5010919;28;20191;-71
2021/08/09 03:06:45;;;;;;;4.97;3.23;;;13.00;99.90;;;14.48;78.22;94473.13;4993241;28;20681;-71
2021/08/09 03:09:12;;;;;;;7.50;3.13;;;14.40;99.90;;;14.45;78.30;94479.00;5003742;28;20608;-71
2021/08/09 03:11:42;;;;;;;3.70;3.33;;;13.70;99.90;;;14.45;78.45;94477.13;5006665;28;20743;-70
2021/08/09 03:14:27;;;;;;;6.60;3.30;;;13.50;99.90;;;14.48;78.33;94489.91;5011128;28;20542;-70
2021/08/09 03:16:54;;;;;;;3.57;2.80;;;13.50;99.90;;;14.49;78.38;94486.19;4996151;28;20265;-70
2021/08/09 03:19:20;;;;;;;3.73;2.93;;;13.50;99.90;;;14.47;78.62;94488.31;4985845;28;20200;-70
2021/08/09 03:21:59;;;;;;;3.47;2.93;;;13.50;99.90;;;14.46;78.66;94491.28;4977242;28;20202;-71
2021/08/09 03:24:29;;;;;;;4.40;3.20;;;13.50;99.90;;;14.36;78.52;94490.25;5014933;28;20188;-71
2021/08/09 03:26:55;;;;;;;3.43;2.93;;;13.40;99.90;;;14.32;78.73;94491.03;5013584;28;21015;-71
2021/08/09 03:29:21;;;;;;;4.23;2.77;;;13.40;99.90;;;14.28;78.70;94495.31;5013815;28;20188;-71
2021/08/09 03:31:47;;;;;;;3.20;2.60;;;13.30;99.90;;;14.27;78.84;94494.50;5009171;28;20973;-71
2021/08/09 03:34:19;;;;;;;4.33;2.87;;;13.30;99.90;;;14.30;78.57;94496.63;5010457;28;20189;-70
2021/08/09 03:36:46;;;;;;;8.23;3.17;;;14.20;99.90;;;14.25;78.66;94498.53;5006996;28;20210;-70
2021/08/09 03:39:14;;;;;;;3.27;2.80;;;13.30;99.90;;;14.15;78.88;94502.03;5004453;28;20199;-70
2021/08/09 03:41:40;;;;;;;4.50;2.97;;;13.20;99.90;;;14.08;78.63;94501.50;5007650;28;20668;-71
2021/08/09 03:44:09;;;;;;;3.83;2.93;;;13.10;99.90;;;13.95;78.26;94507.41;5018924;28;20191;-71
2021/08/09 03:46:35;;;;;;;4.43;3.13;;;13.00;99.90;;;13.93;78.40;94508.75;5006750;28;20204;-70
2021/08/09 03:49:04;;;;;;;4.63;2.73;;;13.00;99.90;;;13.83;78.84;94512.22;4993385;28;20200;-70
2021/08/09 03:51:31;;;;;;;4.23;2.97;;;13.90;99.90;;;13.83;78.85;94504.25;5011802;28;20192;-71
2021/08/09 03:54:00;;;;;;;3.60;3.30;;;12.80;99.90;;;13.74;78.74;94498.66;5007943;28;20200;-70
2021/08/09 03:56:26;;;;;;;5.03;3.00;;;12.90;99.90;;;13.71;78.70;94493.06;5007505;28;20255;-70
2021/08/09 03:58:52;;;;;;;3.60;2.70;;;12.80;99.90;;;13.61;78.66;94509.06;4994351;28;20227;-70
2021/08/09 04:01:18;;;;;;;5.23;3.10;;;12.70;99.90;;;13.58;78.81;94507.72;5008089;28;20196;-70
2021/08/09 04:03:44;;;;;;;4.23;3.07;;;12.60;99.90;;;13.63;79.21;94506.94;5015062;28;20254;-70
2021/08/09 04:06:10;;;;;;;6.57;3.30;;;12.60;99.90;;;13.63;78.91;94505.03;5009491;28;20218;-70
2021/08/09 04:08:40;;;;;;;4.87;3.10;;;13.30;99.90;;;13.55;79.13;94496.81;5008615;28;20201;-71
2021/08/09 04:11:06;;;;;;;3.77;2.63;;;12.50;99.90;;;13.45;79.06;94508.28;5008460;28;20200;-70
2021/08/09 04:13:31;;;;;;;4.17;2.70;;;12.40;99.90;;;13.40;78.94;94496.84;5000202;28;20198;-71
2021/08/09 04:15:57;;;;;;;4.23;2.70;;;12.40;99.90;;;13.42;79.14;94494.69;5009380;28;20849;-71
2021/08/09 04:18:26;;;;;;;3.20;2.90;;;12.40;99.90;;;13.31;79.03;94496.53;4988109;28;20195;-71
2021/08/09 04:20:52;;;;;;;3.17;2.73;;;12.30;99.90;;;13.32;79.17;94503.47;5007325;28;20193;-70
2021/08/09 04:23:18;;;;;;;3.40;3.10;;;12.80;99.90;;;13.35;79.25;94498.41;5003682;28;20213;-70
2021/08/09 04:25:44;;;;;;;3.57;2.77;;;12.30;99.90;;;13.42;79.17;94514.13;5009856;28;20203;-70
2021/08/09 04:28:09;;;;;;;3.40;3.10;;;12.30;99.90;;;13.43;79.27;94507.72;5015378;28;20208;-70
2021/08/09 04:30:35;;;;;;;5.30;3.40;;;11.80;99.90;;;13.45;79.48;94504.81;4991506;28;20208;-71
2021/08/09 04:33:04;;;;;;;3.30;3.00;;;12.40;99.90;;;13.55;78.97;94518.91;5010179;28;20196;-70
2021/08/09 04:35:30;;;;;;;3.77;3.20;;;13.30;99.90;;;13.53;79.00;94514.94;4957444;28;20562;-71
2021/08/09 04:37:56;;;;;;;3.53;2.77;;;12.40;99.90;;;13.56;79.35;94514.41;5008211;28;20271;-71
2021/08/09 04:40:23;;;;;;;4.43;2.87;;;;;;;13.55;79.38;94510.13;5005376;28;20286;-71
2021/08/09 04:42:49;;;;;;;4.60;2.60;;;11.90;99.90;;;13.63;79.26;94510.38;5006363;28;20188;-70
2021/08/09 04:45:15;;;;;;;4.23;2.80;;;13.70;99.90;;;13.70;79.57;94523.41;5007693;28;20226;-70
2021/08/09 04:47:41;;;;;;;3.67;2.90;;;12.00;99.90;;;13.63;79.63;94520.25;5006073;28;20245;-71
2021/08/09 04:50:10;;;;;;;2.83;2.63;;;12.50;99.90;;;13.67;79.43;94521.28;4989780;28;20192;-71
2021/08/09 04:52:46;;;;;;;3.30;2.83;;;12.60;99.90;;;13.71;79.68;94520.50;4989648;28;20506;-71
2021/08/09 04:55:15;;;;;;;3.33;2.43;;;13.70;99.90;;;13.73;79.57;94512.25;5008960;28;20190;-70
2021/08/09 04:57:45;;;;;;;7.27;2.93;;;12.70;99.90;;;13.72;79.43;94511.44;5008593;28;20211;-71
2021/08/09 05:00:13;;;;;;;3.90;2.80;;;12.70;99.90;;;13.78;79.57;94506.91;5004982;28;20201;-71
2021/08/09 05:02:39;;;;;;;4.13;3.00;;;12.80;99.90;;;13.68;79.78;94501.59;5004919;28;20266;-71
2021/08/09 05:05:07;;;;;;;4.40;2.97;;;12.70;99.90;;;13.69;79.57;94500.53;5006965;28;20287;-71
2021/08/09 05:07:33;;;;;;;4.80;3.20;;;12.70;99.90;;;13.56;79.64;94493.09;5008188;28;20225;-70
2021/08/09 05:09:59;;;;;;;5.60;3.70;;;12.60;99.90;;;13.50;79.80;94486.94;5004045;28;20651;-70
2021/08/09 05:12:24;;;;;;;5.03;3.43;;;12.50;99.90;;;13.57;79.55;94500.00;5005266;28;20745;-71
2021/08/09 05:14:51;;;;;;;4.00;3.40;;;13.80;99.90;;;13.59;79.48;94500.53;5006779;28;20832;-70
2021/08/09 05:17:16;;;;;;;3.30;3.00;;;12.60;99.90;;;13.67;79.64;94510.63;4979726;28;20236;-70
2021/08/09 05:19:42;;;;;;;6.90;3.23;;;12.60;99.90;;;13.73;79.73;94501.59;5022508;28;20195;-70
2021/08/09 05:22:08;;;;;;;5.43;3.00;;;12.70;99.90;;;13.77;79.62;94500.78;5004270;28;20569;-70
2021/08/09 05:24:35;;;;;;;4.63;3.20;;;12.70;99.90;;;13.84;79.76;94513.81;4988131;28;20552;-70
2021/08/09 05:27:04;;;;;;;5.40;2.60;;;12.70;99.90;;;13.97;79.48;94507.91;4991969;28;20598;-70
2021/08/09 05:29:31;;;;;;;4.50;3.00;;;12.90;99.90;;;14.21;79.78;94516.94;5002573;28;20206;-70
2021/08/09 05:31:59;;;;;;;5.37;2.80;;;13.10;99.90;;;14.33;79.90;94504.13;5001696;28;20227;-70
2021/08/09 05:34:25;;;;;;;4.33;2.50;;;13.20;99.90;;;14.53;79.73;94505.13;5008358;28;20216;-71
2021/08/09 05:36:52;;;;;;;6.30;2.47;;;13.40;99.90;;;14.76;79.79;94518.59;4989905;28;20690;-71
2021/08/09 05:39:18;;;;;;;5.27;2.47;;;13.60;99.90;;;14.95;79.84;94520.63;5004835;28;20288;-73
2021/08/09 05:41:46;;;;;;;2.83;2.50;;;13.80;99.90;;;15.07;79.70;94531.78;4987020;28;20302;-71
2021/08/09 05:44:12;;;;;;;3.37;2.17;;;13.90;99.90;;;15.21;79.82;94524.75;5003055;28;20222;-71
2021/08/09 05:46:38;;;;;;;3.80;2.33;;;14.10;99.90;;;15.33;79.86;94523.31;4986656;28;20286;-71
2021/08/09 05:49:05;;;;;;;3.67;2.20;;;14.30;99.90;;;15.47;79.84;94512.81;5004417;28;20688;-71
2021/08/09 05:51:35;;;;;;;4.70;2.53;;;14.50;99.90;;;15.53;79.77;94529.63;5024153;28;20757;-71
2021/08/09 05:54:03;;;;;;;5.97;2.80;;;14.50;99.90;;;15.74;79.91;94541.75;5006027;28;20232;-68
2021/08/09 05:56:29;;;;;;;3.83;2.07;;;14.70;99.90;;;15.98;79.83;94531.91;4986887;28;20586;-73
2021/08/09 05:58:55;;;;;;;2.73;2.20;;;15.00;99.90;;;16.03;79.93;94520.34;5002671;28;20206;-73
2021/08/09 06:01:21;;;;;;;2.43;2.10;;;15.00;99.90;;;16.20;79.76;94531.41;5006390;28;20912;-71
2021/08/09 06:03:47;;;;;;;3.47;2.13;;;15.20;99.90;;;16.77;79.56;94550.06;5007222;28;20208;-71
2021/08/09 06:06:18;;;;;;;2.97;2.07;;;15.70;99.90;;;17.32;79.80;94555.75;5002997;28;20214;-72
2021/08/09 06:08:45;;;;;;;2.00;1.80;;;16.40;99.90;;;17.92;79.62;94541.44;5006642;28;20667;-73
2021/08/09 06:11:11;;;;;;;3.53;1.97;;;16.90;99.90;;;18.31;79.47;94548.25;4986262;28;20668;-72
2021/08/09 06:13:39;;;;;;;3.37;1.90;;;17.30;99.90;;;19.37;79.29;94595.31;4986833;28;20200;-73
2021/08/09 06:16:06;;;;;;;3.67;1.53;;;18.30;99.90;;;20.80;79.14;94601.59;4999753;28;20217;-73
2021/08/09 06:18:35;;;;;;;3.53;1.33;;;21.20;99.90;;;22.32;78.82;94587.88;5005236;28;20657;-74
2021/08/09 06:21:05;;;;;;;4.63;1.57;;;21.60;99.90;;;23.68;78.61;94576.00;5004424;28;20197;-74
2021/08/09 06:23:35;;;;;;;2.73;1.60;;;23.30;99.90;;;24.87;78.42;94524.50;5020729;28;20296;-71
2021/08/09 06:26:01;;;;;;;3.37;1.77;;;24.70;99.90;;;25.60;77.95;94535.28;5004704;28;20352;-73
2021/08/09 06:28:29;;;;;;;1.70;1.50;;;25.50;99.90;;;26.47;77.45;94590.59;5002224;28;20295;-73
2021/08/09 06:30:55;;;;;;;5.10;1.80;;;26.50;99.90;;;27.21;77.03;94519.03;5005689;28;20220;-73
2021/08/09 06:33:22;;;;;;;3.03;1.40;;;27.50;99.90;;;27.62;76.53;94527.75;4998628;28;20232;-73
2021/08/09 06:35:50;;;;;;;2.77;1.53;;;28.10;99.90;;;27.33;76.26;94531.78;5019129;28;20222;-73
2021/08/09 06:38:18;;;;;;;2.40;1.70;;;28.00;99.90;;;28.12;76.06;94548.69;5002097;28;20194;-73
2021/08/09 06:40:45;;;;;;;2.67;1.70;;;29.00;99.90;;;27.78;75.47;94482.97;5006510;28;20773;-73
2021/08/09 06:43:12;;;;;;;2.10;1.30;;;29.00;99.90;;;28.09;75.58;94513.97;4997611;28;20219;-73
2021/08/09 06:45:42;;;;;;;3.57;1.53;;;29.10;99.90;;;28.97;74.87;94537.44;5019415;28;20290;-73
2021/08/09 06:48:12;;;;;;;2.30;1.27;;;29.90;99.90;;;29.79;73.79;94543.00;4982516;28;20190;-73
2021/08/09 06:50:40;;;;;;;1.67;1.40;;;30.70;99.90;;;31.01;73.44;94560.50;4989218;28;20197;-72
2021/08/09 06:53:06;;;;;;;2.80;1.50;;;31.80;99.90;;;31.43;72.97;94478.63;4986612;28;20228;-73
2021/08/09 06:55:35;;;;;;;2.87;1.50;;;32.50;97.30;;;31.67;72.42;94492.88;4989208;28;20578;-73
2021/08/09 06:58:03;;;;;;;3.90;1.60;;;33.10;95.90;;;31.50;72.15;94519.81;5003612;28;20764;-72
2021/08/09 07:00:31;;;;;;;3.07;1.47;;;33.00;95.00;;;32.48;71.31;94512.44;5005878;28;20201;-73
2021/08/09 07:03:04;;;;;;;2.27;1.40;;;33.70;93.80;;;32.51;71.01;94423.81;5019582;28;20197;-72
2021/08/09 07:05:32;;;;;;;2.67;1.40;;;34.30;91.30;;;32.18;70.21;94509.19;4980222;28;20213;-72
2021/08/09 07:07:58;;;;;;;2.00;1.35;;;33.60;91.20;;;30.29;69.94;94421.31;4974798;28;20442;-72
2021/08/09 07:10:24;;;;;;;1.53;1.20;;;32.90;91.30;;;29.92;69.57;94492.41;5008957;28;20318;-73
2021/08/09 07:12:50;;;;;;;4.63;1.50;;;32.00;93.20;;;29.93;69.16;94496.75;5008115;28;20185;-71
2021/08/09 07:15:15;;;;;;;2.20;1.30;;;31.70;93.60;;;29.07;68.75;94463.09;4989952;28;20189;-72
2021/08/09 07:17:42;;;;;;;2.23;1.37;;;31.00;93.80;;;27.78;68.46;94439.38;5018641;28;20309;-71
2021/08/09 07:20:14;;;;;;;4.37;1.60;;;29.90;94.90;;;27.21;68.48;94485.59;5008839;28;20185;-71
2021/08/09 07:22:45;;;;;;;1.87;1.47;;;29.00;96.10;;;26.79;67.92;94494.31;5004863;28;20185;-72
2021/08/09 07:25:15;;;;;;;2.40;1.40;;;28.40;97.20;;;26.80;67.62;94517.63;4994235;28;20206;-72
2021/08/09 07:27:44;;;;;;;4.07;1.67;;;28.10;98.00;;;27.31;67.13;94504.09;4988527;28;20196;-72
2021/08/09 07:30:15;;;;;;;2.80;1.50;;;28.30;98.10;;;27.01;67.31;94484.75;5008192;28;20887;-72
2021/08/09 07:32:44;;;;;;;4.80;1.50;;;28.20;97.90;;;26.52;66.73;94490.50;5001013;28;20217;-72
2021/08/09 07:35:15;;;;;;;2.30;1.37;;;27.70;98.40;;;26.39;66.56;94488.25;4994963;28;20197;-72
2021/08/09 07:37:41;;;;;;;2.47;1.43;;;27.60;98.90;;;26.81;66.21;94549.19;5004065;28;20217;-73
2021/08/09 07:40:09;;;;;;;3.80;1.50;;;27.60;99.70;;;27.55;65.99;94539.28;4988601;28;20199;-72
2021/08/09 07:42:35;;;;;;;2.53;1.63;;;28.10;99.90;;;28.12;65.57;94518.69;5003331;28;20762;-72
2021/08/09 07:45:01;;;;;;;1.30;1.20;;;28.80;99.20;;;28.34;65.65;94479.81;5007052;28;21385;-70
2021/08/09 07:47:29;;;;;;;2.13;1.30;;;29.20;97.60;;;28.17;65.14;94557.38;5008757;28;20220;-72
2021/08/09 07:49:58;;;;;;;2.97;1.40;;;29.30;99.90;;;28.25;65.17;94511.94;5005147;28;20190;-72
2021/08/09 07:52:24;;;;;;;2.13;1.50;;;29.70;99.90;;;28.33;64.60;94476.28;5005383;28;20303;-71
2021/08/09 07:54:50;;;;;;;2.13;1.30;;;29.40;96.20;;;28.10;64.85;94504.66;4992535;28;20221;-72
2021/08/09 07:57:19;;;;;;;3.37;1.50;;;29.20;96.70;;;28.38;64.08;94492.34;5006965;28;20236;-72
2021/08/09 07:59:45;;;;;;;1.93;1.10;;;29.30;96.40;;;28.67;63.72;94504.59;5008206;28;20212;-71
2021/08/09 08:02:12;;;;;;;1.90;1.10;;;29.60;95.80;;;29.48;63.55;94544.13;4990691;28;20211;-71
2021/08/09 08:04:42;;;;;;;2.60;1.30;;;30.30;95.20;;;29.73;63.20;94541.75;5008259;28;20197;-71
2021/08/09 08:07:08;;;;;;;1.87;1.23;;;30.70;94.70;;;30.00;63.11;94532.38;5019931;28;20644;-71
2021/08/09 08:09:35;;;;;;;1.63;0.93;;;31.10;93.60;;;31.22;62.71;94579.88;4989109;28;20624;-72
2021/08/09 08:12:01;;;;;;;3.37;1.13;;;32.00;92.60;;;31.76;61.91;94507.03;4976818;28;20197;-72
2021/08/09 08:14:28;;;;;;;2.57;1.10;;;33.10;89.70;;;32.08;61.87;94556.59;5011111;28;20192;-71
2021/08/09 08:16:57;;;;;;;3.27;1.30;;;33.60;90.10;;;32.74;61.09;94522.34;5004053;28;20617;-71
2021/08/09 08:19:23;;;;;;;1.50;1.00;;;34.40;87.10;;;32.82;60.86;94505.47;5007737;28;20197;-71
2021/08/09 08:21:52;;;;;;;2.27;1.33;;;34.70;84.70;;;32.23;60.79;94465.72;5009090;28;20219;-71
2021/08/09 08:24:17;;;;;;;2.67;1.30;;;34.30;85.50;;;31.90;60.23;94537.25;4984525;28;20653;-71
2021/08/09 08:26:44;;;;;;;2.10;1.30;;;34.00;87.10;;;31.52;60.29;94522.97;5003252;28;20259;-71
2021/08/09 08:29:09;;;;;;;1.70;1.30;;;33.70;86.30;;;32.21;59.38;94574.28;5003235;28;20204;-71
2021/08/09 08:31:35;;;;;;;2.00;1.07;;;34.20;84.30;;;33.04;59.04;94509.00;5001951;28;20227;-71
2021/08/09 08:34:04;;;;;;;2.33;1.10;;;35.10;81.40;;;33.52;59.06;94570.69;5006163;28;20201;-72
2021/08/09 08:36:29;;;;;;;2.58;0.98;;;35.70;79.30;;;34.21;58.38;94561.97;5005808;28;20221;-71
2021/08/09 08:38:56;;;;;;;2.05;0.90;;;36.50;76.60;;;35.10;57.80;94525.69;4999356;28;20644;-72
2021/08/09 08:41:22;;;;;;;2.92;1.20;;;37.20;74.90;;;35.88;57.34;94603.09;5007298;28;20220;-71
2021/08/09 08:43:48;;;;;;;3.05;1.23;;;37.30;71.90;;;35.97;57.00;94520.59;5007563;28;20185;-71
2021/08/09 08:46:18;;;;;;;2.20;1.00;;;37.80;71.00;;;36.78;56.62;94558.31;5006126;28;20209;-71
2021/08/09 08:48:45;;;;;;;3.45;0.85;;;39.10;68.30;;;36.83;55.63;94529.44;4994651;28;20813;-71
2021/08/09 08:51:11;;;;;;;2.13;0.82;;;39.90;65.00;;;36.14;55.38;94461.66;5018548;28;20206;-72
2021/08/09 08:53:40;;;;;;;2.28;1.20;;;39.40;64.40;;;35.84;54.91;94481.69;4993103;28;20197;-71
2021/08/09 08:56:09;;;;;;;1.40;1.00;;;38.70;64.70;;;35.22;54.66;94572.13;5006188;28;20989;-72
2021/08/09 08:58:38;;;;;;;2.10;1.10;;;38.00;66.80;;;36.19;54.08;94513.69;4998695;28;20181;-72
2021/08/09 09:01:04;;;;;;;1.90;1.10;;;39.20;64.80;;;36.13;53.45;94507.00;5006944;28;20607;-72
2021/08/09 09:03:31;;;;;;;2.88;1.10;;;39.30;63.90;;;36.44;52.96;94594.25;4981102;28;20227;-71
2021/08/09 09:06:08;;;;;;;1.80;1.02;;;39.30;62.60;;;35.57;53.19;94549.75;5004607;28;20186;-72
2021/08/09 09:08:48;;;;;;;2.42;0.93;;;38.70;63.80;;;35.87;52.33;94621.63;5000233;28;20225;-70
2021/08/09 09:11:23;;;;;;;2.33;0.90;;;38.50;66.70;;;37.20;51.77;94650.22;5021438;28;20180;-71
2021/08/09 09:14:06;;;;;;;4.35;1.20;;;39.90;65.10;;;36.85;51.37;94552.69;5007671;28;20271;-71
2021/08/09 09:16:53;;;;;;;2.05;1.10;;;39.40;62.60;;;37.10;51.39;94598.59;5009309;28;20209;-71
2021/08/09 09:19:43;;;;;;;3.72;1.10;;;39.30;61.70;;;37.65;50.48;94695.03;5003256;28;20200;-70
2021/08/09 09:22:24;;;;;;;1.52;1.13;;;39.60;60.40;;;38.12;50.36;94593.41;5008193;28;20762;-71
2021/08/09 09:24:55;;;;;;;2.80;1.35;;;40.50;61.70;;;38.03;49.48;94605.03;5004709;28;20185;-71
2021/08/09 09:27:34;;;;;;;2.92;1.15;;;40.90;61.10;;;39.35;49.16;94668.63;4986804;28;20189;-70
2021/08/09 09:30:29;;;;;;;2.40;1.10;;;42.60;58.40;;;38.96;48.00;94525.19;4988674;28;20212;-71
2021/08/09 09:33:06;;;;;;;1.85;1.00;;;42.80;57.90;;;39.49;48.16;94634.97;4999467;28;20775;-71
2021/08/09 09:35:39;;;;;;;3.42;1.23;;;43.40;58.00;;;40.61;47.73;94604.00;5006239;28;20220;-71
2021/08/09 09:38:05;;;;;;;2.00;1.05;;;44.90;56.00;;;41.57;46.87;94599.16;5007764;28;20189;-72
2021/08/09 09:40:40;;;;;;;1.23;0.98;;;45.70;52.70;;;40.96;46.78;94586.31;4992924;28;20200;-72
2021/08/09 09:43:23;;;;;;;1.60;1.40;;;45.50;53.20;;;40.80;46.12;94564.09;5008705;28;20275;-72
2021/08/09 09:45:58;;;;;;;1.80;1.27;;;45.60;52.70;;;41.51;45.47;94561.94;5007626;28;20276;-71
2021/08/09 09:48:45;;;;;;;3.60;1.40;;;46.30;52.20;;;41.99;45.22;94588.63;5001470;28;20713;-71
2021/08/09 09:51:15;;;;;;;1.67;1.00;;;46.60;53.00;;;41.76;44.75;94489.47;4990410;28;20791;-71
2021/08/09 09:53:43;;;;;;;1.25;0.98;;;46.90;49.60;;;42.13;44.32;94565.84;5006440;28;20189;-72
2021/08/09 09:56:10;;;;;;;3.20;1.20;;;47.10;49.70;;;42.08;43.98;94542.09;4991990;28;20859;-71
2021/08/09 09:58:37;;;;;;;1.55;1.10;;;47.40;49.20;;;42.16;43.40;94590.81;5004193;28;20193;-72
2021/08/09 10:01:05;;;;;;;2.40;1.10;;;47.60;48.50;;;40.09;43.25;94379.91;4987898;28;20228;-72
2021/08/09 10:03:38;;;;;;;2.58;1.50;;;46.10;49.20;;;38.61;43.30;94567.53;5021523;28;20192;-71
2021/08/09 10:06:04;;;;;;;2.63;1.40;;;44.20;51.90;;;39.53;42.54;94537.72;5000703;28;20887;-71
2021/08/09 10:08:43;;;;;;;1.60;1.20;;;44.20;51.60;;;38.79;42.75;94583.78;4987281;28;20547;-72
2021/08/09 10:11:11;;;;;;;2.97;1.52;;;43.30;51.10;;;39.91;41.40;94566.53;4992566;28;20223;-72
2021/08/09 10:13:39;;;;;;;1.92;1.50;;;43.90;52.10;;;39.15;41.54;94495.03;5023763;28;20226;-72
2021/08/09 10:16:09;;;;;;;3.30;1.30;;;42.80;53.20;;;38.71;41.38;94529.69;4988024;28;20205;-71
2021/08/09 10:18:40;;;;;;;2.20;1.30;;;42.80;52.90;;;40.41;40.91;94638.25;5007234;28;20211;-72
2021/08/09 10:21:07;;;;;;;2.60;1.40;;;44.00;51.00;;;40.46;40.79;94447.91;4999304;28;20284;-71
2021/08/09 10:23:47;;;;;;;2.97;1.30;;;44.00;51.20;;;41.12;40.22;94577.88;5005603;28;20204;-71
2021/08/09 10:26:37;;;;;;;2.33;1.10;;;44.90;51.10;;;41.76;40.06;94593.34;4995989;28;20217;-71
2021/08/09 10:29:08;;;;;;;1.67;1.00;;;45.60;49.30;;;41.11;39.38;94503.94;5029544;28;20450;-71